Time;durP1;ratioP1;P1;durP2;ratioP2;P2;SDS_P1;SDS_P2;PMS_P1;PMS_P2;Temp;Humidity;BMP_temperature;BMP_pressure;BME280_temperature;BME280_humidity;BME280_pressure;Samples;Min_cycle;Max_cycle;Signal;HPM_P1;HPM_P2
2022/10/24 00:00:43;;;;;;;35.30;19.98;;;;;;;;;;4860741;29;20555;-73
2022/10/24 00:03:10;;;;;;;32.50;18.98;;;;;;;;;;4859680;29;20068;-71
2022/10/24 00:05:35;;;;;;;28.75;18.27;;;;;;;;;;4860971;29;20499;-71
2022/10/24 00:08:01;;;;;;;37.05;19.77;;;;;;;;;;4864956;29;20069;-72
2022/10/24 00:10:27;;;;;;;36.33;20.63;;;;;;;;;;4879343;29;20029;-71
2022/10/24 00:12:54;;;;;;;36.75;20.50;;;;;;;;;;4878873;29;20044;-71
2022/10/24 00:15:19;;;;;;;32.63;19.58;;;;;;;;;;4879046;29;20033;-72
2022/10/24 00:17:45;;;;;;;39.92;21.63;;;;;;;;;;4878606;29;20039;-73
2022/10/24 00:20:12;;;;;;;34.70;20.58;;;;;;;;;;4878765;29;20387;-74
2022/10/24 00:22:38;;;;;;;35.60;19.98;;;;;;;;;;4877805;29;20081;-72
2022/10/24 00:25:05;;;;;;;33.88;19.98;;;;;;;;;;4860176;29;20028;-73
2022/10/24 00:27:30;;;;;;;39.53;20.52;;;;;;;;;;4860093;29;20045;-73
2022/10/24 00:29:56;;;;;;;33.78;20.15;;;;;;;;;;4876549;29;20061;-73
2022/10/24 00:32:22;;;;;;;38.10;19.98;;;;;;;;;;4878753;29;20392;-73
2022/10/24 00:34:48;;;;;;;33.92;21.13;;;;;;;;;;4862768;29;20034;-73
2022/10/24 00:37:14;;;;;;;41.72;21.52;;;;;;;;;;4860541;29;20500;-72
2022/10/24 00:39:40;;;;;;;46.70;22.45;;;;;;;;;;4877013;29;20033;-73
2022/10/24 00:42:06;;;;;;;40.03;19.98;;;;;;;;;;4878733;29;20941;-73
2022/10/24 00:44:36;;;;;;;43.30;21.95;;;;;;;;;;4875307;29;20021;-72
2022/10/24 00:47:23;;;;;;;35.67;20.73;;;;;;;;;;4878415;29;20465;-73
2022/10/24 00:50:01;;;;;;;31.67;18.30;;;;;;;;;;4863279;29;20041;-73
2022/10/24 00:52:30;;;;;;;34.13;18.88;;;;;;;;;;4860093;29;20034;-73
2022/10/24 00:54:59;;;;;;;38.35;20.05;;;;;;;;;;4878293;29;20033;-73
2022/10/24 00:57:32;;;;;;;32.25;18.92;;;;;;;;;;4878148;29;20173;-73
2022/10/24 01:00:05;;;;;;;;;;;;;;;;;;4877090;29;20480;-72
2022/10/24 01:02:32;;;;;;;38.08;20.27;;;;;;;;;;4878500;29;19928;-71
2022/10/24 01:04:58;;;;;;;40.15;20.08;;;;;;;;;;4862148;29;20031;-72
2022/10/24 01:07:24;;;;;;;45.50;21.65;;;;;;;;;;4859645;29;20110;-72
2022/10/24 01:09:55;;;;;;;37.33;20.50;;;;;;;;;;4863668;29;20066;-72
2022/10/24 01:12:38;;;;;;;36.58;21.23;;;;;;;;;;4859495;29;20143;-72
2022/10/24 01:15:13;;;;;;;39.50;19.95;;;;;;;;;;4859555;29;20074;-72
2022/10/24 01:17:49;;;;;;;36.80;18.73;;;;;;;;;;4859512;29;20037;-73
2022/10/24 01:20:41;;;;;;;33.50;18.38;;;;;;;;;;4859750;29;20041;-71
2022/10/24 01:23:26;;;;;;;32.78;18.60;;;;;;;;;;4859400;29;20037;-72
2022/10/24 01:26:04;;;;;;;37.47;20.40;;;;;;;;;;4859317;29;20451;-72
2022/10/24 01:28:53;;;;;;;33.20;20.73;;;;;;;;;;4859339;29;20101;-72
2022/10/24 01:31:44;;;;;;;36.42;20.70;;;;;;;;;;4859723;29;20485;-72
2022/10/24 01:34:27;;;;;;;38.42;20.23;;;;;;;;;;4859575;29;20044;-73
2022/10/24 01:37:42;;;;;;;45.33;22.13;;;;;;;;;;4859761;29;20033;-72
2022/10/24 01:40:16;;;;;;;41.15;19.90;;;;;;;;;;4837349;29;20048;-74
2022/10/24 01:42:43;;;;;;;32.20;18.60;;;;;;;;;;4861823;29;20038;-73
2022/10/24 01:45:14;;;;;;;30.35;18.60;;;;;;;;;;4863071;29;20685;-73
2022/10/24 01:47:45;;;;;;;31.35;17.85;;;;;;;;;;4863001;29;20050;-74
2022/10/24 01:50:13;;;;;;;36.13;17.67;;;;;;;;;;4863298;29;20048;-73
2022/10/24 01:52:42;;;;;;;33.97;17.80;;;;;;;;;;4862761;29;20017;-73
2022/10/24 01:55:09;;;;;;;32.65;16.17;;;;;;;;;;4862804;29;20041;-73
2022/10/24 01:57:35;;;;;;;27.95;15.23;;;;;;;;;;4862559;29;20033;-74
2022/10/24 02:00:04;;;;;;;24.65;14.73;;;;;;;;;;4867549;29;20048;-73
2022/10/24 02:02:47;;;;;;;22.45;14.95;;;;;;;;;;4881386;29;20136;-73
2022/10/24 02:05:13;;;;;;;28.63;15.77;;;;;;;;;;4881170;29;20037;-73
2022/10/24 02:07:41;;;;;;;25.92;15.50;;;;;;;;;;4880936;29;20025;-73
2022/10/24 02:10:24;;;;;;;22.70;13.98;;;;;;;;;;4880858;29;20048;-73
2022/10/24 02:12:56;;;;;;;26.77;13.90;;;;;;;;;;4881231;29;20116;-73
2022/10/24 02:15:29;;;;;;;30.67;15.40;;;;;;;;;;4880707;29;20480;-73
2022/10/24 02:17:56;;;;;;;23.80;13.55;;;;;;;;;;4881100;29;20108;-72
2022/10/24 02:20:47;;;;;;;28.30;14.38;;;;;;;;;;4880706;29;20029;-73
2022/10/24 02:23:25;;;;;;;29.25;17.08;;;;;;;;;;4870459;29;20053;-73
2022/10/24 02:25:56;;;;;;;31.95;19.13;;;;;;;;;;4862065;29;20029;-73
2022/10/24 02:28:25;;;;;;;30.55;16.67;;;;;;;;;;4862127;29;20124;-73
2022/10/24 02:30:59;;;;;;;27.98;15.63;;;;;;;;;;4861815;29;20437;-73
2022/10/24 02:33:28;;;;;;;29.50;14.82;;;;;;;;;;4862274;29;20041;-73
2022/10/24 02:35:55;;;;;;;37.42;17.33;;;;;;;;;;4862518;29;20032;-73
2022/10/24 02:38:32;;;;;;;29.33;15.88;;;;;;;;;;4869617;29;20104;-73
2022/10/24 02:41:01;;;;;;;36.47;16.23;;;;;;;;;;4879556;29;20414;-73
2022/10/24 02:43:29;;;;;;;26.38;15.75;;;;;;;;;;4880595;29;20247;-73
2022/10/24 02:45:57;;;;;;;24.25;14.98;;;;;;;;;;4862240;29;20511;-73
2022/10/24 02:48:29;;;;;;;27.40;14.43;;;;;;;;;;4861794;29;20090;-73
2022/10/24 02:50:54;;;;;;;35.58;17.40;;;;;;;;;;4862045;29;20042;-73
2022/10/24 02:53:23;;;;;;;31.95;16.42;;;;;;;;;;4866595;29;20502;-73
2022/10/24 02:55:50;;;;;;;29.80;16.50;;;;;;;;;;4863391;29;20037;-73
2022/10/24 02:58:16;;;;;;;26.30;14.90;;;;;;;;;;4861989;29;20493;-73
2022/10/24 03:00:42;;;;;;;28.35;14.90;;;;;;;;;;4860797;29;20042;-73
2022/10/24 03:03:07;;;;;;;28.40;14.85;;;;;;;;;;4861923;29;20124;-73
2022/10/24 03:05:33;;;;;;;29.00;13.93;;;;;;;;;;4860418;29;20049;-70
2022/10/24 03:07:59;;;;;;;30.67;15.10;;;;;;;;;;4861652;29;20040;-73
2022/10/24 03:10:25;;;;;;;24.60;13.85;;;;;;;;;;4861834;29;20041;-73
2022/10/24 03:12:51;;;;;;;27.88;14.40;;;;;;;;;;4861916;29;20034;-73
2022/10/24 03:15:17;;;;;;;24.17;13.95;;;;;;;;;;4861806;29;20038;-73
2022/10/24 03:17:43;;;;;;;20.55;11.27;;;;;;;;;;4873169;29;20120;-73
2022/10/24 03:20:09;;;;;;;22.85;12.60;;;;;;;;;;4879853;29;20040;-73
2022/10/24 03:22:35;;;;;;;28.23;12.63;;;;;;;;;;4866149;29;20030;-73
2022/10/24 03:25:02;;;;;;;28.48;13.70;;;;;;;;;;4879937;29;20127;-72
2022/10/24 03:27:29;;;;;;;39.28;17.50;;;;;;;;;;4879827;29;20033;-73
2022/10/24 03:29:55;;;;;;;32.67;17.27;;;;;;;;;;4879676;29;20041;-73
2022/10/24 03:32:21;;;;;;;38.38;16.65;;;;;;;;;;4879707;29;20115;-73
2022/10/24 03:34:46;;;;;;;37.22;16.52;;;;;;;;;;4879672;29;20048;-74
2022/10/24 03:37:12;;;;;;;37.58;17.13;;;;;;;;;;4879281;29;20436;-74
2022/10/24 03:39:38;;;;;;;28.08;15.95;;;;;;;;;;4862297;29;20053;-73
2022/10/24 03:42:04;;;;;;;31.23;15.32;;;;;;;;;;4860974;29;20113;-73
2022/10/24 03:44:30;;;;;;;32.88;15.93;;;;;;;;;;4860626;29;20034;-73
2022/10/24 03:46:56;;;;;;;31.95;16.55;;;;;;;;;;4860488;29;20045;-72
2022/10/24 03:49:22;;;;;;;31.15;15.63;;;;;;;;;;4860597;29;20048;-73
2022/10/24 03:51:48;;;;;;;35.88;15.27;;;;;;;;;;4860540;29;20045;-73
2022/10/24 03:54:14;;;;;;;29.02;14.70;;;;;;;;;;4873886;29;20033;-73
2022/10/24 03:56:42;;;;;;;34.22;15.60;;;;;;;;;;4878790;29;20119;-73
2022/10/24 03:59:08;;;;;;;28.80;15.23;;;;;;;;;;4878796;29;20068;-73
2022/10/24 04:01:34;;;;;;;30.92;15.98;;;;;;;;;;4879167;29;20128;-73
2022/10/24 04:04:00;;;;;;;34.88;16.60;;;;;;;;;;4878032;29;20109;-73
2022/10/24 04:06:26;;;;;;;25.67;14.73;;;;;;;;;;4878395;29;20392;-74
2022/10/24 04:08:52;;;;;;;35.25;14.38;;;;;;;;;;4867336;29;20060;-73
2022/10/24 04:11:18;;;;;;;35.08;16.25;;;;;;;;;;4859941;29;20121;-73
2022/10/24 04:13:44;;;;;;;33.08;16.33;;;;;;;;;;4859751;29;20049;-73
2022/10/24 04:16:10;;;;;;;31.98;15.82;;;;;;;;;;4867122;29;20025;-72
2022/10/24 04:18:36;;;;;;;31.15;16.52;;;;;;;;;;4877867;29;20705;-73
2022/10/24 04:21:02;;;;;;;25.67;15.68;;;;;;;;;;4879619;29;20079;-74
2022/10/24 04:23:33;;;;;;;31.60;16.58;;;;;;;;;;4879358;29;20108;-73
2022/10/24 04:25:59;;;;;;;37.47;18.38;;;;;;;;;;4876382;29;20480;-73
2022/10/24 04:28:26;;;;;;;33.97;17.23;;;;;;;;;;4878884;29;20491;-73
2022/10/24 04:30:56;;;;;;;32.17;17.15;;;;;;;;;;4879335;29;20045;-73
2022/10/24 04:33:22;;;;;;;35.20;16.50;;;;;;;;;;4878792;29;20037;-73
2022/10/24 04:35:49;;;;;;;37.47;18.20;;;;;;;;;;4877491;29;20401;-74
2022/10/24 04:38:16;;;;;;;39.75;18.75;;;;;;;;;;4877020;29;20045;-73
2022/10/24 04:40:52;;;;;;;33.45;15.70;;;;;;;;;;4878615;29;20085;-73
2022/10/24 04:43:19;;;;;;;40.00;17.92;;;;;;;;;;4876304;29;20060;-73
2022/10/24 04:45:46;;;;;;;33.88;16.30;;;;;;;;;;4878492;29;20389;-73
2022/10/24 04:48:12;;;;;;;30.88;15.35;;;;;;;;;;4878831;29;20041;-73
2022/10/24 04:50:40;;;;;;;30.42;15.68;;;;;;;;;;4879019;29;20569;-73
2022/10/24 04:53:06;;;;;;;33.92;15.00;;;;;;;;;;4878709;29;20033;-73
2022/10/24 04:55:32;;;;;;;36.20;15.63;;;;;;;;;;4877827;29;20544;-73
2022/10/24 04:57:58;;;;;;;30.92;17.10;;;;;;;;;;4861016;29;20033;-72
2022/10/24 05:00:23;;;;;;;29.00;15.38;;;;;;;;;;4873318;29;20021;-73
2022/10/24 05:02:50;;;;;;;30.90;16.92;;;;;;;;;;4877771;29;20424;-74
2022/10/24 05:05:16;;;;;;;40.97;16.98;;;;;;;;;;4877524;29;20033;-74
2022/10/24 05:07:44;;;;;;;34.33;14.73;;;;;;;;;;4877431;29;20065;-75
2022/10/24 05:10:11;;;;;;;28.70;15.35;;;;;;;;;;4877204;29;20492;-75
2022/10/24 05:12:37;;;;;;;44.30;20.50;;;;;;;;;;4871462;29;20433;-75
2022/10/24 05:15:04;;;;;;;39.20;16.60;;;;;;;;;;4863849;29;20025;-75
2022/10/24 05:17:30;;;;;;;26.83;14.90;;;;;;;;;;4877783;29;20064;-74
2022/10/24 05:19:55;;;;;;;32.17;17.80;;;;;;;;;;4878182;29;20065;-74
2022/10/24 05:22:22;;;;;;;38.15;15.45;;;;;;;;;;4878133;29;20029;-75
2022/10/24 05:24:49;;;;;;;30.02;15.10;;;;;;;;;;4875973;29;20033;-74
2022/10/24 05:27:15;;;;;;;33.40;15.82;;;;;;;;;;4867490;29;20045;-74
2022/10/24 05:29:41;;;;;;;28.45;14.43;;;;;;;;;;4875679;29;20091;-75
2022/10/24 05:32:07;;;;;;;30.83;15.65;;;;;;;;;;4877632;29;20484;-75
2022/10/24 05:34:32;;;;;;;29.10;12.80;;;;;;;;;;4878086;29;20040;-74
2022/10/24 05:36:58;;;;;;;25.55;14.02;;;;;;;;;;4878368;29;20049;-75
2022/10/24 05:39:24;;;;;;;33.33;13.77;;;;;;;;;;4876739;29;20037;-76
2022/10/24 05:41:50;;;;;;;23.20;13.18;;;;;;;;;;4878075;29;20041;-75
2022/10/24 05:44:16;;;;;;;25.30;13.93;;;;;;;;;;4878050;29;20029;-75
2022/10/24 05:46:42;;;;;;;24.20;13.20;;;;;;;;;;4877819;29;20049;-75
2022/10/24 05:49:08;;;;;;;28.80;13.60;;;;;;;;;;4877674;29;20447;-75
2022/10/24 05:51:34;;;;;;;26.38;11.98;;;;;;;;;;4878345;29;20045;-75
2022/10/24 05:53:59;;;;;;;26.05;12.50;;;;;;;;;;4878126;29;20077;-75
2022/10/24 05:56:25;;;;;;;25.40;12.85;;;;;;;;;;4878188;29;20508;-74
2022/10/24 05:58:51;;;;;;;30.30;13.98;;;;;;;;;;4877837;29;20112;-75
2022/10/24 06:01:17;;;;;;;26.98;12.75;;;;;;;;;;4878088;29;20037;-74
2022/10/24 06:03:43;;;;;;;27.90;12.70;;;;;;;;;;4877978;29;20029;-74
2022/10/24 06:06:09;;;;;;;26.48;13.00;;;;;;;;;;4877439;29;20415;-75
2022/10/24 06:08:36;;;;;;;38.05;13.73;;;;;;;;;;4877675;29;20029;-75
2022/10/24 06:11:03;;;;;;;30.23;12.98;;;;;;;;;;4877311;29;20065;-75
2022/10/24 06:13:29;;;;;;;28.58;13.80;;;;;;;;;;4877401;29;20029;-76
2022/10/24 06:15:55;;;;;;;33.28;12.18;;;;;;;;;;4877231;29;20044;-76
2022/10/24 06:18:21;;;;;;;28.27;13.05;;;;;;;;;;4876974;29;20040;-75
2022/10/24 06:20:47;;;;;;;21.80;11.68;;;;;;;;;;4877754;29;20029;-78
2022/10/24 06:23:13;;;;;;;28.60;12.95;;;;;;;;;;4877716;29;20037;-75
2022/10/24 06:25:40;;;;;;;25.60;12.00;;;;;;;;;;4877656;29;20033;-80
2022/10/24 06:28:06;;;;;;;19.67;11.45;;;;;;;;;;4878627;29;20540;-78
2022/10/24 06:30:33;;;;;;;26.52;11.27;;;;;;;;;;4880811;29;20048;-76
2022/10/24 06:32:59;;;;;;;25.55;11.73;;;;;;;;;;4880905;29;20406;-76
2022/10/24 06:35:25;;;;;;;27.00;11.90;;;;;;;;;;4880521;29;20108;-78
2022/10/24 06:37:50;;;;;;;41.13;13.73;;;;;;;;;;4880386;29;20080;-75
2022/10/24 06:40:17;;;;;;;35.03;14.00;;;;;;;;;;4879228;29;20056;-78
2022/10/24 06:42:44;;;;;;;32.70;13.15;;;;;;;;;;4895164;29;20040;-76
2022/10/24 06:45:10;;;;;;;35.58;13.40;;;;;;;;;;4880426;29;20100;-77
2022/10/24 06:47:36;;;;;;;37.75;13.55;;;;;;;;;;4880197;29;20145;-77
2022/10/24 06:50:02;;;;;;;35.28;12.45;;;;;;;;;;4880587;29;20544;-78
2022/10/24 06:52:27;;;;;;;25.02;11.50;;;;;;;;;;4880125;29;20382;-76
2022/10/24 06:54:53;;;;;;;30.95;12.48;;;;;;;;;;4880228;29;20037;-78
2022/10/24 06:57:19;;;;;;;32.17;12.32;;;;;;;;;;4879943;29;20097;-77
2022/10/24 06:59:45;;;;;;;34.20;12.77;;;;;;;;;;4880756;29;20041;-80
2022/10/24 07:02:15;;;;;;;41.42;14.63;;;;;;;;;;4880599;29;20036;-80
2022/10/24 07:04:41;;;;;;;36.03;14.50;;;;;;;;;;4880417;29;20045;-76
2022/10/24 07:07:16;;;;;;;34.95;15.18;;;;;;;;;;4880211;29;20044;-78
2022/10/24 07:09:43;;;;;;;38.45;15.48;;;;;;;;;;4878544;29;20079;-76
2022/10/24 07:12:10;;;;;;;27.02;13.63;;;;;;;;;;4879774;29;20033;-76
2022/10/24 07:14:36;;;;;;;43.50;15.63;;;;;;;;;;4876062;29;20081;-79
2022/10/24 07:17:02;;;;;;;32.95;13.57;;;;;;;;;;4875096;29;20033;-75
2022/10/24 07:19:28;;;;;;;39.58;13.50;;;;;;;;;;4862164;29;20561;-77
2022/10/24 07:21:54;;;;;;;36.97;13.43;;;;;;;;;;4861912;29;20148;-76
2022/10/24 07:24:21;;;;;;;42.10;11.45;;;;;;;;;;4861186;29;20045;-76
2022/10/24 07:26:47;;;;;;;32.83;12.18;;;;;;;;;;4861344;29;20125;-77
2022/10/24 07:29:13;;;;;;;22.55;9.85;;;;;;;;;;4859966;29;20510;-77
2022/10/24 07:31:39;;;;;;;28.20;10.48;;;;;;;;;;4860591;29;20034;-76
2022/10/24 07:34:06;;;;;;;20.92;9.70;;;;;;;;;;4860915;29;20038;-75
2022/10/24 07:36:32;;;;;;;18.27;8.63;;;;;;;;;;4860677;29;20025;-75
2022/10/24 07:38:59;;;;;;;17.58;8.77;;;;;;;;;;4859437;29;20102;-78
2022/10/24 07:41:27;;;;;;;17.05;9.52;;;;;;;;;;4860235;29;20427;-77
2022/10/24 07:43:56;;;;;;;18.15;8.88;;;;;;;;;;4860736;29;20093;-74
2022/10/24 07:46:22;;;;;;;22.55;9.77;;;;;;;;;;4860957;29;20117;-74
2022/10/24 07:48:50;;;;;;;23.25;11.27;;;;;;;;;;4860405;29;20041;-75
2022/10/24 07:51:16;;;;;;;20.75;9.55;;;;;;;;;;4860640;29;20112;-74
2022/10/24 07:53:42;;;;;;;24.45;9.40;;;;;;;;;;4859898;29;20040;-78
2022/10/24 07:56:14;;;;;;;19.77;9.25;;;;;;;;;;4869049;29;20036;-78
2022/10/24 07:58:44;;;;;;;21.02;9.02;;;;;;;;;;4879121;29;20503;-75
2022/10/24 08:01:15;;;;;;;21.40;8.98;;;;;;;;;;4879213;29;20088;-76
2022/10/24 08:03:41;;;;;;;19.08;8.68;;;;;;;;;;4878760;29;20066;-77
2022/10/24 08:06:11;;;;;;;22.67;10.55;;;;;;;;;;4878380;29;20039;-76
2022/10/24 08:08:37;;;;;;;21.73;9.98;;;;;;;;;;4877388;29;20052;-77
2022/10/24 08:11:17;;;;;;;21.13;8.30;;;;;;;;;;4878996;29;20464;-76
2022/10/24 08:13:43;;;;;;;20.02;8.77;;;;;;;;;;4876952;29;20109;-75
2022/10/24 08:16:12;;;;;;;22.88;10.45;;;;;;;;;;4874439;29;20474;-79
2022/10/24 08:18:39;;;;;;;26.67;9.82;;;;;;;;;;4863739;29;20076;-75
2022/10/24 08:21:07;;;;;;;19.63;9.80;;;;;;;;;;4878500;29;20507;-76
2022/10/24 08:23:35;;;;;;;18.20;9.23;;;;;;;;;;4878335;29;20381;-77
2022/10/24 08:26:04;;;;;;;22.50;10.15;;;;;;;;;;4875773;29;20047;-77
2022/10/24 08:28:30;;;;;;;24.02;9.63;;;;;;;;;;4861704;29;20136;-79
2022/10/24 08:31:01;;;;;;;23.45;9.25;;;;;;;;;;4860832;29;20475;-78
2022/10/24 08:33:27;;;;;;;21.42;9.75;;;;;;;;;;4859217;29;20033;-76
2022/10/24 08:35:58;;;;;;;19.50;7.90;;;;;;;;;;4862248;29;20037;-79
2022/10/24 08:38:24;;;;;;;16.30;8.00;;;;;;;;;;4870978;29;20484;-79
2022/10/24 08:40:50;;;;;;;18.85;7.90;;;;;;;;;;4878041;29;20025;-78
2022/10/24 08:43:18;;;;;;;27.52;8.80;;;;;;;;;;4878542;29;20037;-78
2022/10/24 08:46:18;;;;;;;24.45;8.40;;;;;;;;;;4877456;29;20108;-76
2022/10/24 08:48:59;;;;;;;15.10;8.32;;;;;;;;;;4870324;29;20524;-77
2022/10/24 08:51:33;;;;;;;21.15;8.27;;;;;;;;;;4869057;29;20033;-77
2022/10/24 08:54:01;;;;;;;20.02;8.75;;;;;;;;;;4863640;29;20177;-78
2022/10/24 08:56:30;;;;;;;15.75;7.75;;;;;;;;;;4876918;29;20112;-78
2022/10/24 08:58:59;;;;;;;22.10;7.40;;;;;;;;;;4876382;29;20424;-77
2022/10/24 09:01:39;;;;;;;20.80;7.32;;;;;;;;;;4876936;29;20143;-78
2022/10/24 09:04:09;;;;;;;24.55;8.50;;;;;;;;;;4872750;29;20033;-78
2022/10/24 09:06:35;;;;;;;16.23;7.28;;;;;;;;;;4876781;29;20033;-76
2022/10/24 09:09:09;;;;;;;17.70;7.35;;;;;;;;;;4876739;29;20085;-77
2022/10/24 09:11:59;;;;;;;14.75;7.40;;;;;;;;;;4874435;29;20089;-77
2022/10/24 09:14:30;;;;;;;21.10;7.28;;;;;;;;;;4868390;29;20029;-75
2022/10/24 09:17:01;;;;;;;17.52;6.47;;;;;;;;;;4876281;29;20116;-76
2022/10/24 09:19:29;;;;;;;17.63;6.85;;;;;;;;;;4877144;29;20041;-77
2022/10/24 09:21:57;;;;;;;16.30;6.93;;;;;;;;;;4877137;29;20386;-78
2022/10/24 09:24:44;;;;;;;19.75;6.80;;;;;;;;;;4875853;29;20069;-78
2022/10/24 09:27:16;;;;;;;13.48;6.43;;;;;;;;;;4875125;29;20033;-78
2022/10/24 09:29:42;;;;;;;19.52;6.18;;;;;;;;;;4870053;29;20056;-77
2022/10/24 09:32:25;;;;;;;16.40;5.95;;;;;;;;;;4876428;29;20029;-77
2022/10/24 09:34:52;;;;;;;17.55;6.28;;;;;;;;;;4870563;29;20061;-79
2022/10/24 09:37:28;;;;;;;14.75;6.70;;;;;;;;;;4876135;29;20033;-78
2022/10/24 09:40:17;;;;;;;17.80;7.28;;;;;;;;;;4876255;29;20037;-80
2022/10/24 09:42:50;;;;;;;13.15;6.00;;;;;;;;;;4871297;29;20575;-80
2022/10/24 09:45:18;;;;;;;14.07;6.35;;;;;;;;;;4876670;29;20372;-77
2022/10/24 09:47:45;;;;;;;12.63;6.00;;;;;;;;;;4873549;29;20120;-78
2022/10/24 09:50:21;;;;;;;12.23;5.38;;;;;;;;;;4874339;29;20037;-77
2022/10/24 09:52:52;;;;;;;18.70;6.13;;;;;;;;;;4872151;29;20044;-77
2022/10/24 09:55:20;;;;;;;24.20;5.60;;;;;;;;;;4877673;29;20096;-78
2022/10/24 09:57:46;;;;;;;14.57;5.57;;;;;;;;;;4872719;29;20053;-78
2022/10/24 10:00:41;;;;;;;17.42;6.40;;;;;;;;;;4875139;29;20540;-79
2022/10/24 10:03:25;;;;;;;12.30;5.80;;;;;;;;;;4861310;29;20097;-79
2022/10/24 10:05:54;;;;;;;14.10;5.95;;;;;;;;;;4876005;29;20037;-78
2022/10/24 10:08:27;;;;;;;12.52;5.80;;;;;;;;;;4880610;29;20056;-77
2022/10/24 10:10:58;;;;;;;;;;;;;;;;;;4881273;29;20033;-78
2022/10/24 10:13:26;;;;;;;12.10;5.43;;;;;;;;;;4880444;29;20051;-79
2022/10/24 10:16:03;;;;;;;14.40;6.45;;;;;;;;;;4880726;29;20100;-78
2022/10/24 10:18:38;;;;;;;11.45;5.72;;;;;;;;;;4872817;29;20063;-79
2022/10/24 10:21:06;;;;;;;14.27;6.10;;;;;;;;;;4880599;29;20081;-79
2022/10/24 10:23:36;;;;;;;14.07;5.57;;;;;;;;;;4880163;29;20452;-75
2022/10/24 10:26:13;;;;;;;14.18;5.97;;;;;;;;;;4862164;29;20035;-78
2022/10/24 10:29:05;;;;;;;17.13;6.20;;;;;;;;;;4874048;29;20037;-77
2022/10/24 10:31:48;;;;;;;12.57;6.05;;;;;;;;;;4878750;29;20366;-79
2022/10/24 10:34:19;;;;;;;22.80;5.93;;;;;;;;;;4879819;29;20131;-80
2022/10/24 10:37:24;;;;;;;15.05;5.78;;;;;;;;;;4880038;29;20033;-79
2022/10/24 10:40:08;;;;;;;11.63;5.03;;;;;;;;;;4874694;29;20420;-79
2022/10/24 10:42:38;;;;;;;11.93;6.20;;;;;;;;;;4878045;29;20056;-79
2022/10/24 10:45:21;;;;;;;14.55;6.00;;;;;;;;;;4879826;29;20489;-77
2022/10/24 10:48:04;;;;;;;;;;;;;;;;;;4879833;29;20056;-77
2022/10/24 10:50:44;;;;;;;12.77;6.18;;;;;;;;;;4878304;29;19920;-76
2022/10/24 10:53:31;;;;;;;14.52;6.00;;;;;;;;;;4878397;29;20057;-76
2022/10/24 10:56:00;;;;;;;14.00;6.30;;;;;;;;;;4869354;29;20033;-76
2022/10/24 10:59:02;;;;;;;14.32;5.45;;;;;;;;;;4876225;29;20077;-76
2022/10/24 11:01:56;;;;;;;13.27;5.47;;;;;;;;;;4879191;29;20119;-77
2022/10/24 11:05:09;;;;;;;14.35;5.65;;;;;;;;;;4878440;29;20037;-79
2022/10/24 11:08:03;;;;;;;18.77;6.50;;;;;;;;;;4858815;29;20132;-76
2022/10/24 11:10:36;;;;;;;11.68;5.43;;;;;;;;;;4870798;29;20048;-79
2022/10/24 11:13:06;;;;;;;13.18;5.88;;;;;;;;;;4879684;29;20042;-81
2022/10/24 11:15:36;;;;;;;12.38;6.68;;;;;;;;;;4879213;29;20033;-79
2022/10/24 11:18:11;;;;;;;15.68;6.03;;;;;;;;;;4879480;29;20033;-76
2022/10/24 11:20:45;;;;;;;13.70;6.10;;;;;;;;;;4879072;29;20045;-76
2022/10/24 11:32:48;;;;;;;17.52;6.18;;;;;;;;;;4514504;29;20068;-81
2022/10/24 11:35:29;;;;;;;13.05;6.07;;;;;;;;;;4876685;29;20084;-83
2022/10/24 11:38:05;;;;;;;11.85;5.82;;;;;;;;;;4884551;29;20029;-78
2022/10/24 11:40:32;;;;;;;12.25;5.20;;;;;;;;;;4871684;29;20073;-79
2022/10/24 11:43:09;;;;;;;17.20;6.20;;;;;;;;;;4870781;29;20029;-78
2022/10/24 11:45:59;;;;;;;13.45;5.85;;;;;;;;;;4865441;29;20037;-79
2022/10/24 11:48:31;;;;;;;14.43;5.68;;;;;;;;;;4876371;29;20093;-79
2022/10/24 11:51:36;;;;;;;13.88;6.85;;;;;;;;;;4867249;29;20512;-78
2022/10/24 11:54:09;;;;;;;15.88;6.00;;;;;;;;;;4844968;29;20046;-80
2022/10/24 11:56:43;;;;;;;;;;;;;;;;;;4876366;29;20036;-78
2022/10/24 11:59:15;;;;;;;17.27;5.80;;;;;;;;;;4871643;29;19946;-78
2022/10/24 12:01:53;;;;;;;10.70;5.65;;;;;;;;;;4875823;29;20033;-81
2022/10/24 12:04:46;;;;;;;16.92;5.80;;;;;;;;;;4866265;29;20403;-77
2022/10/24 12:07:14;;;;;;;16.33;6.73;;;;;;;;;;4868125;29;20124;-79
2022/10/24 12:09:49;;;;;;;15.35;6.05;;;;;;;;;;4878450;29;20296;-82
2022/10/24 12:12:17;;;;;;;12.88;5.95;;;;;;;;;;4871409;29;20120;-81
2022/10/24 12:15:10;;;;;;;20.75;6.18;;;;;;;;;;4875498;29;20046;-81
2022/10/24 12:17:47;;;;;;;19.02;6.53;;;;;;;;;;4868801;29;20065;-83
2022/10/24 12:20:20;;;;;;;12.85;6.28;;;;;;;;;;4871092;29;20029;-79
2022/10/24 12:22:46;;;;;;;;;;;;;;;;;;4870852;29;20093;-79
2022/10/24 12:25:28;;;;;;;12.95;5.68;;;;;;;;;;4863754;29;20283;-79
2022/10/24 12:27:56;;;;;;;14.90;6.00;;;;;;;;;;4873531;29;20159;-79
2022/10/24 12:30:25;;;;;;;13.10;5.45;;;;;;;;;;4865260;29;20551;-80
2022/10/24 12:33:23;;;;;;;14.98;5.93;;;;;;;;;;4868064;29;20216;-80
2022/10/24 12:35:51;;;;;;;19.55;7.05;;;;;;;;;;4864009;29;20483;-81
2022/10/24 12:38:26;;;;;;;16.30;5.63;;;;;;;;;;4873928;29;20021;-81
2022/10/24 12:40:56;;;;;;;16.17;5.40;;;;;;;;;;4863958;29;20030;-80
2022/10/24 12:43:38;;;;;;;17.80;5.85;;;;;;;;;;4861143;29;20081;-82
2022/10/24 12:46:18;;;;;;;17.45;5.10;;;;;;;;;;4871238;29;20136;-82
2022/10/24 12:48:57;;;;;;;19.45;5.57;;;;;;;;;;4866604;29;20112;-78
2022/10/24 12:51:33;;;;;;;16.10;5.53;;;;;;;;;;4866980;29;20081;-77
2022/10/24 12:54:06;;;;;;;16.63;6.00;;;;;;;;;;4871259;29;20061;-79
2022/10/24 12:56:33;;;;;;;11.73;5.13;;;;;;;;;;4870117;29;20070;-81
2022/10/24 12:59:24;;;;;;;11.55;4.75;;;;;;;;;;4877312;29;20036;-78
2022/10/24 13:02:06;;;;;;;13.90;5.68;;;;;;;;;;4860415;29;20056;-80
2022/10/24 13:05:04;;;;;;;16.27;5.68;;;;;;;;;;4871422;29;20477;-80
2022/10/24 13:07:49;;;;;;;9.63;4.75;;;;;;;;;;4817807;29;20049;-81
2022/10/24 13:10:24;;;;;;;18.90;5.25;;;;;;;;;;4868923;29;20041;-78
2022/10/24 13:13:35;;;;;;;17.15;5.00;;;;;;;;;;4875242;29;20491;-81
2022/10/24 13:16:49;;;;;;;15.70;5.45;;;;;;;;;;4872999;29;20037;-81
2022/10/24 13:19:20;;;;;;;19.38;5.95;;;;;;;;;;4868945;29;20408;-78
2022/10/24 13:21:49;;;;;;;16.42;4.53;;;;;;;;;;4865527;29;20055;-77
2022/10/24 13:24:14;;;;;;;23.48;6.07;;;;;;;;;;4865695;29;20476;-81
2022/10/24 13:26:46;;;;;;;16.60;5.85;;;;;;;;;;4873603;29;20085;-80
2022/10/24 13:29:34;;;;;;;16.60;5.25;;;;;;;;;;4876032;29;20029;-79
2022/10/24 13:32:03;;;;;;;18.02;4.68;;;;;;;;;;4866625;29;20046;-79
2022/10/24 13:34:49;;;;;;;14.60;4.70;;;;;;;;;;4865571;29;20425;-79
2022/10/24 13:37:56;;;;;;;16.42;4.95;;;;;;;;;;4856693;29;20053;-80
2022/10/24 13:40:43;;;;;;;14.65;4.80;;;;;;;;;;4802378;29;20458;-78
2022/10/24 13:43:20;;;;;;;19.33;4.85;;;;;;;;;;4870336;29;20048;-78
2022/10/24 13:45:56;;;;;;;14.07;5.38;;;;;;;;;;4873753;29;20034;-79
2022/10/24 13:48:25;;;;;;;27.35;4.88;;;;;;;;;;4879039;29;20041;-80
2022/10/24 13:51:06;;;;;;;17.27;4.82;;;;;;;;;;4870976;29;20028;-80
2022/10/24 13:53:46;;;;;;;15.63;4.70;;;;;;;;;;4878333;29;20044;-78
2022/10/24 13:56:13;;;;;;;13.23;4.65;;;;;;;;;;4879272;29;20399;-78
2022/10/24 13:58:41;;;;;;;15.07;4.97;;;;;;;;;;4869896;29;20029;-79
2022/10/24 14:01:21;;;;;;;19.38;6.00;;;;;;;;;;4870265;29;20522;-77
2022/10/24 14:03:48;;;;;;;15.65;4.80;;;;;;;;;;4871567;29;20408;-84
2022/10/24 14:06:14;;;;;;;15.30;5.10;;;;;;;;;;4871133;29;20030;-84
2022/10/24 14:08:47;;;;;;;16.80;5.03;;;;;;;;;;4876953;29;20044;-83
2022/10/24 14:11:17;;;;;;;19.55;5.63;;;;;;;;;;4879286;29;20120;-83
2022/10/24 14:13:47;;;;;;;18.15;5.80;;;;;;;;;;4871143;29;20481;-84
2022/10/24 14:16:14;;;;;;;13.15;5.28;;;;;;;;;;4876424;29;20075;-84
2022/10/24 14:18:40;;;;;;;19.15;5.05;;;;;;;;;;4878619;29;20112;-79
2022/10/24 14:21:17;;;;;;;17.48;5.32;;;;;;;;;;4876153;29;20033;-81
2022/10/24 14:23:57;;;;;;;19.00;5.65;;;;;;;;;;4871191;29;20040;-85
2022/10/24 14:26:24;;;;;;;10.48;5.72;;;;;;;;;;4867875;29;20112;-83
2022/10/24 14:28:53;;;;;;;9.90;4.72;;;;;;;;;;4869842;29;20048;-82
2022/10/24 14:31:19;;;;;;;14.77;5.68;;;;;;;;;;4863140;29;20029;-86
2022/10/24 14:33:48;;;;;;;8.63;4.90;;;;;;;;;;4850857;29;20101;-87
2022/10/24 14:36:14;;;;;;;12.98;5.63;;;;;;;;;;4869852;29;20045;-88
2022/10/24 14:38:41;;;;;;;11.70;5.38;;;;;;;;;;4867325;29;20021;-88
2022/10/24 14:41:10;;;;;;;13.68;4.78;;;;;;;;;;4868042;29;20059;-85
2022/10/24 14:43:41;;;;;;;11.90;5.20;;;;;;;;;;4873692;29;20487;-87
2022/10/24 14:46:16;;;;;;;13.10;5.32;;;;;;;;;;4875808;29;20524;-86
2022/10/24 14:48:45;;;;;;;10.27;4.88;;;;;;;;;;4875489;29;20044;-87
2022/10/24 14:51:28;;;;;;;11.70;5.43;;;;;;;;;;4865883;29;20026;-77
2022/10/24 14:53:55;;;;;;;9.45;4.60;;;;;;;;;;4867991;29;20037;-80
2022/10/24 14:56:32;;;;;;;10.38;4.80;;;;;;;;;;4868516;29;20025;-77
2022/10/24 14:59:01;;;;;;;15.10;5.45;;;;;;;;;;4867082;29;20072;-79
2022/10/24 15:01:27;;;;;;;13.07;4.95;;;;;;;;;;4875050;29;20052;-78